Time;durP1;ratioP1;P1;durP2;ratioP2;P2;SDS_P1;SDS_P2;PMS_P1;PMS_P2;Temp;Humidity;BMP_temperature;BMP_pressure;BME280_temperature;BME280_humidity;BME280_pressure;Samples;Min_cycle;Max_cycle;Signal;HPM_P1;HPM_P2
2023/06/09 00:00:41;;;;;;;1.00;0.90;;;;;;;;;;4987660;28;58686;-56
2023/06/09 00:03:07;;;;;;;0.70;0.63;;;;;;;;;;4986991;28;58936;-61
2023/06/09 00:05:32;;;;;;;1.17;1.08;;;;;;;;;;4987219;28;58664;-61
2023/06/09 00:07:58;;;;;;;3.42;1.73;;;;;;;;;;4987149;28;59637;-61
2023/06/09 00:10:24;;;;;;;2.60;0.82;;;;;;;;;;4984889;28;58582;-61
2023/06/09 00:12:49;;;;;;;1.23;0.70;;;;;;;;;;4988053;28;58440;-60
2023/06/09 00:15:15;;;;;;;1.03;0.93;;;;;;;;;;4990932;28;58408;-60
2023/06/09 00:17:40;;;;;;;1.02;0.85;;;;;;;;;;4989539;28;58983;-61
2023/06/09 00:20:09;;;;;;;2.13;1.00;;;;;;;;;;4987979;28;58358;-61
2023/06/09 00:22:35;;;;;;;0.98;0.65;;;;;;;;;;4990398;28;58661;-61
2023/06/09 00:25:00;;;;;;;1.45;0.63;;;;;;;;;;4989593;28;58435;-60
2023/06/09 00:27:26;;;;;;;1.20;0.63;;;;;;;;;;4990224;28;59277;-60
2023/06/09 00:29:51;;;;;;;0.70;0.68;;;;;;;;;;4989642;28;58543;-61
2023/06/09 00:32:16;;;;;;;1.05;0.95;;;;;;;;;;4989875;28;58359;-61
2023/06/09 00:34:42;;;;;;;1.15;0.90;;;;;;;;;;4990227;28;59148;-60
2023/06/09 00:37:07;;;;;;;0.95;0.75;;;;;;;;;;4989701;28;58458;-61
2023/06/09 00:39:32;;;;;;;5.13;1.40;;;;;;;;;;4988341;28;58829;-62
2023/06/09 00:41:58;;;;;;;0.93;0.90;;;;;;;;;;4990185;28;58736;-60
2023/06/09 00:44:23;;;;;;;1.35;0.75;;;;;;;;;;4989485;28;58519;-60
2023/06/09 00:46:48;;;;;;;0.80;0.80;;;;;;;;;;4991035;28;58386;-61
2023/06/09 00:49:13;;;;;;;1.53;1.00;;;;;;;;;;4988696;28;58358;-61
2023/06/09 00:51:39;;;;;;;1.07;0.90;;;;;;;;;;4989301;28;58454;-61
2023/06/09 00:54:04;;;;;;;1.10;0.70;;;;;;;;;;4988356;28;58352;-61
2023/06/09 00:56:33;;;;;;;1.23;1.13;;;;;;;;;;4988917;28;58868;-61
2023/06/09 00:58:59;;;;;;;1.05;0.77;;;;;;;;;;4989768;28;58455;-61
2023/06/09 01:01:24;;;;;;;0.90;0.80;;;;;;;;;;4990916;28;59168;-60
2023/06/09 01:03:50;;;;;;;0.75;0.75;;;;;;;;;;4989867;28;58291;-58
2023/06/09 01:06:30;;;;;;;1.02;0.90;;;;;;;;;;4992410;28;58846;-61
2023/06/09 01:08:58;;;;;;;0.63;0.63;;;;;;;;;;4988965;28;58458;-62
2023/06/09 01:11:31;;;;;;;0.85;0.85;;;;;;;;;;4988050;28;58655;-61
2023/06/09 01:14:02;;;;;;;1.15;1.05;;;;;;;;;;4991292;28;58777;-61
2023/06/09 01:16:35;;;;;;;1.20;1.10;;;;;;;;;;4988908;28;58524;-59
2023/06/09 01:19:05;;;;;;;0.70;0.50;;;;;;;;;;4988527;28;58353;-60
2023/06/09 01:21:42;;;;;;;0.60;0.50;;;;;;;;;;4988886;28;59128;-61
2023/06/09 01:24:28;;;;;;;0.73;0.70;;;;;;;;;;4988464;28;58729;-61
2023/06/09 01:26:54;;;;;;;1.38;0.70;;;;;;;;;;4989040;28;58740;-61
2023/06/09 01:29:20;;;;;;;0.77;0.75;;;;;;;;;;4990925;28;59908;-58
2023/06/09 01:31:46;;;;;;;7.95;1.10;;;;;;;;;;4989986;28;58223;-62
2023/06/09 01:34:11;;;;;;;0.95;0.82;;;;;;;;;;4990902;28;58322;-61
2023/06/09 01:36:36;;;;;;;1.63;1.00;;;;;;;;;;4990149;28;58375;-61
2023/06/09 01:39:01;;;;;;;1.10;1.00;;;;;;;;;;4991048;28;58672;-61
2023/06/09 01:41:26;;;;;;;0.70;0.70;;;;;;;;;;4990114;28;58379;-60
2023/06/09 01:43:52;;;;;;;0.73;0.60;;;;;;;;;;4989915;28;58325;-59
2023/06/09 01:46:17;;;;;;;0.83;0.70;;;;;;;;;;4991174;28;58626;-61
2023/06/09 01:48:59;;;;;;;0.77;0.77;;;;;;;;;;4990358;28;58916;-58
2023/06/09 01:51:28;;;;;;;0.68;0.60;;;;;;;;;;4990192;28;58591;-61
2023/06/09 01:53:59;;;;;;;0.77;0.77;;;;;;;;;;4989434;28;58336;-61
2023/06/09 01:56:31;;;;;;;1.13;1.10;;;;;;;;;;4989708;28;58575;-61
2023/06/09 01:58:57;;;;;;;1.27;0.82;;;;;;;;;;4988220;28;58436;-60
2023/06/09 02:01:23;;;;;;;1.77;0.70;;;;;;;;;;4990712;28;58422;-61
2023/06/09 02:03:51;;;;;;;0.60;0.60;;;;;;;;;;4987846;28;58768;-61
2023/06/09 02:06:19;;;;;;;1.30;1.15;;;;;;;;;;4987991;28;58431;-61
2023/06/09 02:08:44;;;;;;;1.00;0.80;;;;;;;;;;4988729;28;59791;-59
2023/06/09 02:11:10;;;;;;;0.70;0.70;;;;;;;;;;4987762;28;58198;-62
2023/06/09 02:13:35;;;;;;;0.68;0.68;;;;;;;;;;4990705;28;58784;-61
2023/06/09 02:16:00;;;;;;;0.43;0.43;;;;;;;;;;4989659;28;58402;-61
2023/06/09 02:18:25;;;;;;;0.80;0.80;;;;;;;;;;4989555;28;58514;-61
2023/06/09 02:20:51;;;;;;;0.55;0.52;;;;;;;;;;4990131;28;58659;-61
2023/06/09 02:23:20;;;;;;;0.60;0.53;;;;;;;;;;4988900;28;58716;-61
2023/06/09 02:25:45;;;;;;;0.90;0.90;;;;;;;;;;4991095;28;58598;-61
2023/06/09 02:28:11;;;;;;;0.90;0.80;;;;;;;;;;4989924;28;58378;-59
2023/06/09 02:30:36;;;;;;;0.82;0.80;;;;;;;;;;4988059;28;58309;-61
2023/06/09 02:33:02;;;;;;;0.90;0.88;;;;;;;;;;4990541;28;58743;-61
2023/06/09 02:35:30;;;;;;;1.07;0.97;;;;;;;;;;4988546;28;58625;-61
2023/06/09 02:37:57;;;;;;;2.03;1.10;;;;;;;;;;4988987;28;58396;-62
2023/06/09 02:40:22;;;;;;;0.70;0.70;;;;;;;;;;4989496;28;59432;-61
2023/06/09 02:42:47;;;;;;;0.57;0.57;;;;;;;;;;4989164;28;58678;-62
2023/06/09 02:45:13;;;;;;;0.70;0.70;;;;;;;;;;4989521;28;58575;-61
2023/06/09 02:47:38;;;;;;;1.00;0.90;;;;;;;;;;4989278;28;58457;-61
2023/06/09 02:50:04;;;;;;;0.90;0.68;;;;;;;;;;4988212;28;58256;-61
2023/06/09 02:52:31;;;;;;;1.05;0.95;;;;;;;;;;4987998;28;58432;-61
2023/06/09 02:54:56;;;;;;;0.70;0.70;;;;;;;;;;4988657;28;60012;-58
2023/06/09 02:57:21;;;;;;;1.17;1.07;;;;;;;;;;4989275;28;58347;-61
2023/06/09 02:59:46;;;;;;;0.70;0.70;;;;;;;;;;4987331;28;58163;-61
2023/06/09 03:02:12;;;;;;;0.68;0.68;;;;;;;;;;4987425;28;58239;-62
2023/06/09 03:04:37;;;;;;;0.60;0.60;;;;;;;;;;4989104;28;58846;-61
2023/06/09 03:07:03;;;;;;;1.00;0.82;;;;;;;;;;4989463;28;58489;-61
2023/06/09 03:09:29;;;;;;;0.90;0.80;;;;;;;;;;4987620;28;58426;-62
2023/06/09 03:11:54;;;;;;;1.10;1.02;;;;;;;;;;4988229;28;58410;-59
2023/06/09 03:14:20;;;;;;;0.80;0.80;;;;;;;;;;4988681;28;58957;-61
2023/06/09 03:16:45;;;;;;;0.95;0.93;;;;;;;;;;4989238;28;58752;-62
2023/06/09 03:19:10;;;;;;;0.73;0.73;;;;;;;;;;4989681;28;58580;-61
2023/06/09 03:21:36;;;;;;;1.20;1.10;;;;;;;;;;4987267;28;58562;-58
2023/06/09 03:24:05;;;;;;;1.35;0.75;;;;;;;;;;4988554;28;58489;-60
2023/06/09 03:26:31;;;;;;;0.65;0.60;;;;;;;;;;4989407;28;58886;-61
2023/06/09 03:28:56;;;;;;;0.70;0.70;;;;;;;;;;4988346;28;58449;-61
2023/06/09 03:31:21;;;;;;;1.10;1.00;;;;;;;;;;4989083;28;58732;-61
2023/06/09 03:33:46;;;;;;;0.63;0.63;;;;;;;;;;4988062;28;58500;-61
2023/06/09 03:36:11;;;;;;;1.33;1.15;;;;;;;;;;4989087;28;58400;-61
2023/06/09 03:38:36;;;;;;;1.30;0.83;;;;;;;;;;4990189;28;58637;-61
2023/06/09 03:41:02;;;;;;;0.73;0.73;;;;;;;;;;4987556;28;58558;-60
2023/06/09 03:43:28;;;;;;;0.60;0.57;;;;;;;;;;4989509;28;58656;-61
2023/06/09 03:45:53;;;;;;;1.15;1.10;;;;;;;;;;4988960;28;58561;-61
2023/06/09 03:48:19;;;;;;;0.90;0.90;;;;;;;;;;4990644;28;59074;-59
2023/06/09 03:50:44;;;;;;;1.17;0.80;;;;;;;;;;4991868;28;58531;-61
2023/06/09 03:53:09;;;;;;;1.73;1.10;;;;;;;;;;4992317;28;58510;-61
2023/06/09 03:55:34;;;;;;;0.80;0.77;;;;;;;;;;4991661;28;58538;-62
2023/06/09 03:57:59;;;;;;;0.80;0.80;;;;;;;;;;4992630;28;58346;-61
2023/06/09 04:00:25;;;;;;;0.70;0.70;;;;;;;;;;4989911;28;59018;-61
2023/06/09 04:02:50;;;;;;;1.00;0.80;;;;;;;;;;4988612;28;58363;-59
2023/06/09 04:05:15;;;;;;;1.77;0.97;;;;;;;;;;4989692;28;58719;-62
2023/06/09 04:07:40;;;;;;;0.70;0.70;;;;;;;;;;4988595;28;58483;-59
2023/06/09 04:10:06;;;;;;;1.35;1.20;;;;;;;;;;4987785;28;58601;-61
2023/06/09 04:12:31;;;;;;;1.70;0.95;;;;;;;;;;4990076;28;58394;-61
2023/06/09 04:14:57;;;;;;;0.90;0.80;;;;;;;;;;4990061;28;58689;-61
2023/06/09 04:17:22;;;;;;;0.73;0.73;;;;;;;;;;4990705;28;58678;-60
2023/06/09 04:19:47;;;;;;;1.08;1.08;;;;;;;;;;4989865;28;58879;-61
2023/06/09 04:22:12;;;;;;;0.67;0.67;;;;;;;;;;4986146;28;58646;-61
2023/06/09 04:24:40;;;;;;;0.80;0.80;;;;;;;;;;4986436;28;58438;-61
2023/06/09 04:27:07;;;;;;;0.98;0.88;;;;;;;;;;4987968;28;58633;-61
2023/06/09 04:29:32;;;;;;;1.25;1.00;;;;;;;;;;4991243;28;58370;-61
2023/06/09 04:31:58;;;;;;;0.90;0.70;;;;;;;;;;4989767;28;58469;-59
2023/06/09 04:34:25;;;;;;;1.00;0.90;;;;;;;;;;4988334;28;58539;-59
2023/06/09 04:36:52;;;;;;;1.05;0.80;;;;;;;;;;4988443;28;58530;-61
2023/06/09 04:39:17;;;;;;;1.40;1.10;;;;;;;;;;4988650;28;59576;-60
2023/06/09 04:41:44;;;;;;;6.20;3.63;;;;;;;;;;4988380;28;58372;-61
2023/06/09 04:44:09;;;;;;;11.88;4.45;;;;;;;;;;4988387;28;58771;-61
2023/06/09 04:46:37;;;;;;;7.32;3.63;;;;;;;;;;4985972;28;58497;-61
2023/06/09 04:49:08;;;;;;;;;;;;;;;;;;4985331;28;58783;-61
2023/06/09 04:51:41;;;;;;;6.63;3.72;;;;;;;;;;4984457;28;59692;-61
2023/06/09 04:54:07;;;;;;;12.38;4.82;;;;;;;;;;4986699;28;59305;-62
2023/06/09 04:56:32;;;;;;;10.45;4.47;;;;;;;;;;4989134;28;58754;-62
2023/06/09 04:58:58;;;;;;;6.68;4.22;;;;;;;;;;4990083;28;58620;-60
2023/06/09 05:01:23;;;;;;;6.93;4.93;;;;;;;;;;4990971;28;58874;-61
2023/06/09 05:03:48;;;;;;;9.25;3.95;;;;;;;;;;4991091;28;58541;-61
2023/06/09 05:06:13;;;;;;;13.88;5.22;;;;;;;;;;4990975;28;58438;-61
2023/06/09 05:08:38;;;;;;;10.20;3.80;;;;;;;;;;4989261;28;58311;-61
2023/06/09 05:11:03;;;;;;;9.15;3.80;;;;;;;;;;4987978;28;58420;-61
2023/06/09 05:13:28;;;;;;;6.32;3.53;;;;;;;;;;4987636;28;58860;-60
2023/06/09 05:15:53;;;;;;;11.17;4.07;;;;;;;;;;4989204;28;58396;-61
2023/06/09 05:18:19;;;;;;;7.57;3.97;;;;;;;;;;4989885;28;58193;-62
2023/06/09 05:20:44;;;;;;;7.37;3.27;;;;;;;;;;4989024;28;58680;-61
2023/06/09 05:23:09;;;;;;;6.30;3.00;;;;;;;;;;4988846;28;58489;-61
2023/06/09 05:25:35;;;;;;;8.88;3.15;;;;;;;;;;4991056;28;58511;-62
2023/06/09 05:28:00;;;;;;;4.95;2.60;;;;;;;;;;4989973;28;58414;-62
2023/06/09 05:30:25;;;;;;;7.70;2.92;;;;;;;;;;4991115;28;58913;-62
2023/06/09 05:32:50;;;;;;;4.65;2.22;;;;;;;;;;4990444;28;58563;-61
2023/06/09 05:35:16;;;;;;;5.03;2.40;;;;;;;;;;4990542;28;58151;-61
2023/06/09 05:37:51;;;;;;;6.30;2.50;;;;;;;;;;4990176;28;58862;-62
2023/06/09 05:40:17;;;;;;;6.30;2.72;;;;;;;;;;4990339;28;58869;-62
2023/06/09 05:42:42;;;;;;;2.83;2.30;;;;;;;;;;4991349;28;58566;-61
2023/06/09 05:45:07;;;;;;;5.72;2.00;;;;;;;;;;4991019;28;58874;-61
2023/06/09 05:47:33;;;;;;;3.63;2.00;;;;;;;;;;4990709;28;58823;-62
2023/06/09 05:49:58;;;;;;;6.88;2.15;;;;;;;;;;4989949;28;58833;-60
2023/06/09 05:52:24;;;;;;;4.22;1.83;;;;;;;;;;4989923;28;58355;-61
2023/06/09 05:54:49;;;;;;;3.50;2.17;;;;;;;;;;4990450;28;58129;-62
2023/06/09 05:57:15;;;;;;;7.05;2.45;;;;;;;;;;4989777;28;58309;-61
2023/06/09 05:59:41;;;;;;;4.25;2.03;;;;;;;;;;4989937;28;59318;-61
2023/06/09 06:02:06;;;;;;;2.95;1.75;;;;;;;;;;4990134;28;58383;-61
2023/06/09 06:04:31;;;;;;;4.28;2.05;;;;;;;;;;4990034;28;58990;-62
2023/06/09 06:06:57;;;;;;;2.83;2.20;;;;;;;;;;4989624;28;58371;-61
2023/06/09 06:09:22;;;;;;;2.35;2.20;;;;;;;;;;4990210;28;58371;-61
2023/06/09 06:11:47;;;;;;;3.47;1.80;;;;;;;;;;4987531;28;58363;-62
2023/06/09 06:14:12;;;;;;;2.57;1.60;;;;;;;;;;4990132;28;58598;-61
2023/06/09 06:16:38;;;;;;;2.47;1.55;;;;;;;;;;4990100;28;58415;-60
2023/06/09 06:19:03;;;;;;;3.57;2.30;;;;;;;;;;4989615;28;58520;-62
2023/06/09 06:21:28;;;;;;;3.13;2.73;;;;;;;;;;4990912;28;58593;-61
2023/06/09 06:23:53;;;;;;;4.30;1.92;;;;;;;;;;4990320;28;58356;-62
2023/06/09 06:26:18;;;;;;;4.10;2.03;;;;;;;;;;4989522;28;58149;-61
2023/06/09 06:28:43;;;;;;;1.88;1.70;;;;;;;;;;5017102;22;58228;-62
2023/06/09 06:31:09;;;;;;;2.43;2.20;;;;;;;;;;4988138;28;58467;-62
2023/06/09 06:33:34;;;;;;;2.30;1.95;;;;;;;;;;4990625;28;58337;-61
2023/06/09 06:35:59;;;;;;;1.83;1.45;;;;;;;;;;4990237;28;58852;-62
2023/06/09 06:38:25;;;;;;;3.45;1.80;;;;;;;;;;4990087;28;58654;-61
2023/06/09 06:40:50;;;;;;;2.35;2.13;;;;;;;;;;4990525;28;58379;-60
2023/06/09 06:43:15;;;;;;;2.50;1.77;;;;;;;;;;4990605;28;58415;-62
2023/06/09 06:45:40;;;;;;;1.70;1.60;;;;;;;;;;4988839;28;58634;-61
2023/06/09 06:48:05;;;;;;;1.88;1.58;;;;;;;;;;4990029;28;59077;-62
2023/06/09 06:50:32;;;;;;;2.43;1.83;;;;;;;;;;4990175;28;58639;-62
2023/06/09 06:52:57;;;;;;;2.05;1.48;;;;;;;;;;4989640;28;58685;-61
2023/06/09 06:55:22;;;;;;;2.83;1.97;;;;;;;;;;4990206;28;59243;-62
2023/06/09 06:57:48;;;;;;;1.73;1.63;;;;;;;;;;4988750;28;58553;-61
2023/06/09 07:00:15;;;;;;;2.17;1.83;;;;;;;;;;4990407;28;58445;-61
2023/06/09 07:02:41;;;;;;;1.50;1.40;;;;;;;;;;4989178;28;58261;-62
2023/06/09 07:05:06;;;;;;;3.13;1.77;;;;;;;;;;4987859;28;58578;-62
2023/06/09 07:07:32;;;;;;;1.73;1.60;;;;;;;;;;4989987;28;58407;-58
2023/06/09 07:09:57;;;;;;;3.42;1.95;;;;;;;;;;4990153;28;58990;-62
2023/06/09 07:12:22;;;;;;;1.65;1.55;;;;;;;;;;4989465;28;58502;-61
2023/06/09 07:14:47;;;;;;;1.37;1.23;;;;;;;;;;4987672;28;58604;-61
2023/06/09 07:17:13;;;;;;;1.88;1.38;;;;;;;;;;4989231;28;58731;-62
2023/06/09 07:19:38;;;;;;;5.00;2.07;;;;;;;;;;4989706;28;58595;-61
2023/06/09 07:22:03;;;;;;;1.77;1.67;;;;;;;;;;4988791;28;58741;-62
2023/06/09 07:24:30;;;;;;;3.03;1.63;;;;;;;;;;4988755;28;58541;-61
2023/06/09 07:26:55;;;;;;;1.63;1.50;;;;;;;;;;4989591;28;58409;-62
2023/06/09 07:29:20;;;;;;;1.52;1.42;;;;;;;;;;4989273;28;58792;-61
2023/06/09 07:31:45;;;;;;;2.77;1.37;;;;;;;;;;4987575;28;58690;-62
2023/06/09 07:34:10;;;;;;;1.45;1.35;;;;;;;;;;4989914;28;58477;-61
2023/06/09 07:36:37;;;;;;;1.50;1.23;;;;;;;;;;4988632;28;58800;-62
2023/06/09 07:39:03;;;;;;;2.97;1.48;;;;;;;;;;4989464;28;58667;-61
2023/06/09 07:41:30;;;;;;;1.98;1.52;;;;;;;;;;4987926;28;59191;-61
2023/06/09 07:43:56;;;;;;;2.28;1.63;;;;;;;;;;4987090;28;58764;-61
2023/06/09 07:46:21;;;;;;;2.78;1.98;;;;;;;;;;4988985;28;58381;-62
2023/06/09 07:48:46;;;;;;;1.33;1.13;;;;;;;;;;4988774;28;58541;-61
2023/06/09 07:51:13;;;;;;;1.85;1.40;;;;;;;;;;4988632;28;58641;-61
2023/06/09 07:53:39;;;;;;;1.52;1.42;;;;;;;;;;4988985;28;58667;-61
2023/06/09 07:56:04;;;;;;;3.60;1.37;;;;;;;;;;4989219;28;58651;-61
2023/06/09 07:58:29;;;;;;;1.77;1.67;;;;;;;;;;4989388;28;58745;-61
2023/06/09 08:00:54;;;;;;;1.30;1.20;;;;;;;;;;4989099;28;59011;-61
2023/06/09 08:03:19;;;;;;;1.67;1.42;;;;;;;;;;4987964;28;58438;-61
2023/06/09 08:05:45;;;;;;;1.43;1.33;;;;;;;;;;4988743;28;58226;-61
2023/06/09 08:08:10;;;;;;;2.42;1.42;;;;;;;;;;4989408;28;58696;-61
2023/06/09 08:10:35;;;;;;;1.70;1.60;;;;;;;;;;4987192;28;58354;-62
2023/06/09 08:13:00;;;;;;;1.63;1.38;;;;;;;;;;4988998;28;58361;-61
2023/06/09 08:15:25;;;;;;;1.37;1.27;;;;;;;;;;4988630;28;58983;-62
2023/06/09 08:17:50;;;;;;;1.00;0.90;;;;;;;;;;4988796;28;58402;-56
2023/06/09 08:20:16;;;;;;;1.48;1.38;;;;;;;;;;4988203;28;58479;-62
2023/06/09 08:22:41;;;;;;;1.57;1.47;;;;;;;;;;4988268;28;58331;-62
2023/06/09 08:25:07;;;;;;;1.13;1.00;;;;;;;;;;4989211;28;58322;-61
2023/06/09 08:27:32;;;;;;;1.40;1.17;;;;;;;;;;4988831;28;58424;-62
2023/06/09 08:29:57;;;;;;;1.50;1.40;;;;;;;;;;4988198;28;58346;-62
2023/06/09 08:32:22;;;;;;;2.20;1.47;;;;;;;;;;4988888;28;58372;-61
2023/06/09 08:34:47;;;;;;;2.37;1.30;;;;;;;;;;4988316;28;59017;-61
2023/06/09 08:37:13;;;;;;;1.97;1.53;;;;;;;;;;4991812;28;59124;-61
2023/06/09 08:39:38;;;;;;;1.80;1.53;;;;;;;;;;4992315;28;58851;-61
2023/06/09 08:42:06;;;;;;;1.80;1.33;;;;;;;;;;4991414;28;58800;-62
2023/06/09 08:44:36;;;;;;;1.80;1.40;;;;;;;;;;4992094;28;58784;-62
2023/06/09 08:47:02;;;;;;;2.50;1.88;;;;;;;;;;4992100;28;58608;-60
2023/06/09 08:49:28;;;;;;;1.75;1.42;;;;;;;;;;4989435;28;59336;-61
2023/06/09 08:51:53;;;;;;;1.35;1.25;;;;;;;;;;4991287;28;58331;-62
2023/06/09 08:54:20;;;;;;;3.27;1.57;;;;;;;;;;4992096;28;58330;-62
2023/06/09 08:56:47;;;;;;;1.33;1.23;;;;;;;;;;4991547;28;58419;-58
2023/06/09 08:59:12;;;;;;;1.67;1.55;;;;;;;;;;4992164;28;58318;-60
2023/06/09 09:01:38;;;;;;;1.27;1.10;;;;;;;;;;4991178;28;58428;-60
2023/06/09 09:04:03;;;;;;;1.20;1.10;;;;;;;;;;4990389;28;58428;-62
2023/06/09 09:06:28;;;;;;;1.50;1.20;;;;;;;;;;4990377;28;59248;-62
2023/06/09 09:08:53;;;;;;;2.13;1.63;;;;;;;;;;4990773;28;59296;-62
2023/06/09 09:11:18;;;;;;;1.70;1.37;;;;;;;;;;4991566;28;58832;-62
2023/06/09 09:13:47;;;;;;;1.23;1.20;;;;;;;;;;4991795;28;58922;-62
2023/06/09 09:16:15;;;;;;;1.42;1.23;;;;;;;;;;4990299;28;58334;-59
2023/06/09 09:18:44;;;;;;;1.52;1.33;;;;;;;;;;4989787;28;58549;-61
2023/06/09 09:21:09;;;;;;;1.77;1.52;;;;;;;;;;4991428;28;59908;-62
2023/06/09 09:23:34;;;;;;;1.25;1.20;;;;;;;;;;4991377;28;58296;-61
2023/06/09 09:26:00;;;;;;;1.63;1.50;;;;;;;;;;4991839;28;59874;-61
2023/06/09 09:28:25;;;;;;;1.75;1.42;;;;;;;;;;4989858;28;58710;-62
2023/06/09 09:30:55;;;;;;;1.67;1.30;;;;;;;;;;4990721;28;58522;-61
2023/06/09 09:33:24;;;;;;;1.55;1.45;;;;;;;;;;4991921;28;58695;-61
2023/06/09 09:35:53;;;;;;;1.30;1.10;;;;;;;;;;4990643;28;59715;-62
2023/06/09 09:38:22;;;;;;;1.00;0.98;;;;;;;;;;4990545;28;58759;-61
2023/06/09 09:40:49;;;;;;;1.40;1.30;;;;;;;;;;4990251;28;58911;-62
2023/06/09 09:43:15;;;;;;;2.92;2.13;;;;;;;;;;4991257;28;58447;-62
2023/06/09 09:45:44;;;;;;;1.20;1.10;;;;;;;;;;4989161;28;59043;-61
2023/06/09 09:48:10;;;;;;;2.00;1.33;;;;;;;;;;4989686;28;58639;-62
2023/06/09 09:50:36;;;;;;;1.42;1.33;;;;;;;;;;4990581;28;58454;-62
2023/06/09 09:53:02;;;;;;;2.03;1.40;;;;;;;;;;4990932;28;58795;-61
2023/06/09 09:55:28;;;;;;;1.58;1.38;;;;;;;;;;4990540;28;58441;-61
2023/06/09 09:57:53;;;;;;;1.20;1.10;;;;;;;;;;4991028;28;58223;-61
2023/06/09 10:00:19;;;;;;;1.47;0.97;;;;;;;;;;4991062;28;58415;-61
2023/06/09 10:02:46;;;;;;;1.60;1.10;;;;;;;;;;4989615;28;58540;-61
2023/06/09 10:05:15;;;;;;;1.65;1.52;;;;;;;;;;4991540;28;58534;-62
2023/06/09 10:07:42;;;;;;;1.27;1.17;;;;;;;;;;4990293;28;59470;-61
2023/06/09 10:10:10;;;;;;;2.38;1.52;;;;;;;;;;4989839;28;58228;-62
2023/06/09 10:12:35;;;;;;;;;;;;;;;;;;4990807;28;59013;-62
2023/06/09 10:15:01;;;;;;;1.10;1.00;;;;;;;;;;4989768;28;58493;-62
2023/06/09 10:17:26;;;;;;;1.23;1.03;;;;;;;;;;4991355;28;58514;-61
2023/06/09 10:19:52;;;;;;;1.42;1.13;;;;;;;;;;4989976;28;58444;-57
2023/06/09 10:22:18;;;;;;;1.40;1.30;;;;;;;;;;4989528;28;58561;-62
2023/06/09 10:24:44;;;;;;;1.20;1.02;;;;;;;;;;4991843;28;58512;-61
2023/06/09 10:27:09;;;;;;;2.08;1.30;;;;;;;;;;4988137;28;59067;-61
2023/06/09 10:29:34;;;;;;;1.53;1.43;;;;;;;;;;4990817;28;58309;-61
2023/06/09 10:32:00;;;;;;;1.50;1.40;;;;;;;;;;4990082;28;58926;-61
2023/06/09 10:34:26;;;;;;;1.10;1.00;;;;;;;;;;4990360;28;58677;-62
2023/06/09 10:36:52;;;;;;;2.35;1.40;;;;;;;;;;4990707;28;58689;-55
2023/06/09 10:39:17;;;;;;;1.60;1.45;;;;;;;;;;4989246;28;58912;-62
2023/06/09 10:42:07;;;;;;;1.40;1.30;;;;;;;;;;4989195;28;58489;-61
2023/06/09 10:44:52;;;;;;;1.27;1.17;;;;;;;;;;4980913;28;58903;-60
2023/06/09 10:47:36;;;;;;;1.08;0.98;;;;;;;;;;4975561;28;59085;-62
2023/06/09 10:50:01;;;;;;;1.50;1.20;;;;;;;;;;4989867;28;58496;-61
2023/06/09 10:52:40;;;;;;;1.67;1.57;;;;;;;;;;4989989;28;58293;-62
2023/06/09 10:55:12;;;;;;;1.10;1.00;;;;;;;;;;4989236;28;58362;-62
2023/06/09 10:57:38;;;;;;;1.60;1.42;;;;;;;;;;4989779;28;58404;-61
2023/06/09 11:00:11;;;;;;;1.55;0.90;;;;;;;;;;4990145;28;58754;-62
2023/06/09 11:02:37;;;;;;;1.33;1.17;;;;;;;;;;4988830;28;58808;-61
2023/06/09 11:05:04;;;;;;;1.20;1.10;;;;;;;;;;4989606;28;58240;-62
2023/06/09 11:07:31;;;;;;;1.40;1.25;;;;;;;;;;4990353;28;58354;-61
2023/06/09 11:09:56;;;;;;;1.92;1.70;;;;;;;;;;4989659;28;58525;-61
2023/06/09 11:12:24;;;;;;;1.13;1.02;;;;;;;;;;4988581;28;58368;-61
2023/06/09 11:14:51;;;;;;;1.25;1.15;;;;;;;;;;4987980;28;58431;-59
2023/06/09 11:17:17;;;;;;;2.08;1.42;;;;;;;;;;4989446;28;58477;-61
2023/06/09 11:19:42;;;;;;;1.30;1.20;;;;;;;;;;4989368;28;58671;-61
2023/06/09 11:22:11;;;;;;;1.53;1.43;;;;;;;;;;4986729;28;60606;-61
2023/06/09 11:24:46;;;;;;;1.25;1.10;;;;;;;;;;4989091;28;58750;-61
2023/06/09 11:27:21;;;;;;;1.48;1.30;;;;;;;;;;4989103;28;58383;-61
2023/06/09 11:30:05;;;;;;;1.45;1.35;;;;;;;;;;4986147;28;59493;-61
2023/06/09 11:32:42;;;;;;;1.83;1.60;;;;;;;;;;4989300;28;58350;-60
2023/06/09 11:35:07;;;;;;;2.08;1.75;;;;;;;;;;4987432;28;59395;-61
2023/06/09 11:37:33;;;;;;;2.07;1.90;;;;;;;;;;4989776;28;58413;-61
2023/06/09 11:39:58;;;;;;;1.57;1.17;;;;;;;;;;4989909;28;58767;-59
2023/06/09 11:42:23;;;;;;;1.70;1.60;;;;;;;;;;4988524;28;58299;-61
2023/06/09 11:44:48;;;;;;;1.67;1.57;;;;;;;;;;4989457;28;58984;-60
2023/06/09 11:47:27;;;;;;;1.50;1.40;;;;;;;;;;4989201;28;59075;-61
2023/06/09 11:49:52;;;;;;;;;;;;;;;;;;4988456;28;58631;-56
2023/06/09 11:52:17;;;;;;;1.52;1.42;;;;;;;;;;4989525;28;58184;-60
2023/06/09 11:54:42;;;;;;;1.60;1.50;;;;;;;;;;4988635;28;58310;-60
2023/06/09 11:57:09;;;;;;;1.40;1.30;;;;;;;;;;4988542;28;58509;-60
2023/06/09 11:59:34;;;;;;;1.30;1.20;;;;;;;;;;4988154;28;58458;-61
2023/06/09 12:02:00;;;;;;;1.88;1.08;;;;;;;;;;4988627;28;58356;-62
2023/06/09 12:04:25;;;;;;;1.50;1.40;;;;;;;;;;4988414;28;58123;-62
2023/06/09 12:06:50;;;;;;;1.60;1.50;;;;;;;;;;4987100;28;58515;-61
2023/06/09 12:09:17;;;;;;;1.90;1.70;;;;;;;;;;4989453;28;58740;-62
2023/06/09 12:11:52;;;;;;;1.70;1.15;;;;;;;;;;4991820;28;58434;-62
2023/06/09 12:14:18;;;;;;;2.42;1.13;;;;;;;;;;4991758;28;58453;-63
2023/06/09 12:16:43;;;;;;;2.58;1.60;;;;;;;;;;4992258;28;58488;-63
2023/06/09 12:19:09;;;;;;;2.77;1.70;;;;;;;;;;4992384;28;58373;-63
2023/06/09 12:21:34;;;;;;;8.77;1.50;;;;;;;;;;4991476;28;57916;-58
2023/06/09 12:23:59;;;;;;;5.03;1.90;;;;;;;;;;4990894;28;58293;-63
2023/06/09 12:26:25;;;;;;;3.37;2.63;;;;;;;;;;4992311;28;59026;-63
2023/06/09 12:28:54;;;;;;;2.13;1.92;;;;;;;;;;4990149;28;58551;-63
2023/06/09 12:31:19;;;;;;;5.20;1.92;;;;;;;;;;4992466;28;58434;-61
2023/06/09 12:33:48;;;;;;;2.05;1.85;;;;;;;;;;4992068;28;58806;-62
2023/06/09 12:36:13;;;;;;;2.33;1.60;;;;;;;;;;4989968;28;58744;-61
2023/06/09 12:38:39;;;;;;;2.13;1.92;;;;;;;;;;4993137;28;58769;-62
2023/06/09 12:41:14;;;;;;;3.67;1.30;;;;;;;;;;4991482;28;58617;-62
2023/06/09 12:43:50;;;;;;;1.75;1.52;;;;;;;;;;4991427;28;57811;-62
2023/06/09 12:46:34;;;;;;;3.15;1.48;;;;;;;;;;4988363;28;58687;-62
2023/06/09 12:49:01;;;;;;;3.28;1.88;;;;;;;;;;4991134;28;58612;-62
2023/06/09 12:51:26;;;;;;;1.02;0.93;;;;;;;;;;4991920;28;58117;-62
2023/06/09 12:53:52;;;;;;;3.92;1.58;;;;;;;;;;4992688;28;57938;-62
2023/06/09 12:56:18;;;;;;;1.67;1.33;;;;;;;;;;4991539;28;58446;-62
2023/06/09 12:58:43;;;;;;;2.42;1.60;;;;;;;;;;4993904;28;58977;-62
2023/06/09 13:01:08;;;;;;;3.00;1.73;;;;;;;;;;4992212;28;58314;-59
2023/06/09 13:03:33;;;;;;;3.15;1.83;;;;;;;;;;4991874;28;58737;-62
2023/06/09 13:05:59;;;;;;;1.67;1.57;;;;;;;;;;4991916;28;57916;-62
2023/06/09 13:08:24;;;;;;;1.50;1.35;;;;;;;;;;4991825;28;59459;-62
2023/06/09 13:10:49;;;;;;;1.87;1.27;;;;;;;;;;4992592;28;58707;-63
2023/06/09 13:13:15;;;;;;;2.43;1.80;;;;;;;;;;4992738;28;58024;-61
2023/06/09 13:15:40;;;;;;;2.07;1.40;;;;;;;;;;4991740;28;58423;-62
2023/06/09 13:18:09;;;;;;;1.50;1.35;;;;;;;;;;4991944;28;58428;-62
2023/06/09 13:20:34;;;;;;;1.42;1.30;;;;;;;;;;4990559;28;59057;-60
2023/06/09 13:22:59;;;;;;;1.65;1.30;;;;;;;;;;4991239;28;58473;-62
2023/06/09 13:25:24;;;;;;;1.93;1.73;;;;;;;;;;4993209;28;57892;-62
2023/06/09 13:27:50;;;;;;;1.60;1.50;;;;;;;;;;4990261;28;58718;-62
2023/06/09 13:30:15;;;;;;;1.53;1.10;;;;;;;;;;4992406;28;58603;-62
2023/06/09 13:32:40;;;;;;;1.90;1.70;;;;;;;;;;4991580;28;58314;-62
2023/06/09 13:35:05;;;;;;;1.17;1.07;;;;;;;;;;4991602;28;58554;-62
2023/06/09 13:37:31;;;;;;;1.40;1.30;;;;;;;;;;4990472;28;58603;-62
2023/06/09 13:39:56;;;;;;;1.23;1.10;;;;;;;;;;4992055;28;58867;-61
2023/06/09 13:42:21;;;;;;;2.77;1.93;;;;;;;;;;4991979;28;58313;-63
2023/06/09 13:44:46;;;;;;;4.70;1.60;;;;;;;;;;4992248;28;58347;-62
2023/06/09 13:47:11;;;;;;;2.00;1.70;;;;;;;;;;4990591;28;58421;-62
2023/06/09 13:49:37;;;;;;;3.58;1.65;;;;;;;;;;4991801;28;58292;-62
2023/06/09 13:52:02;;;;;;;2.03;1.17;;;;;;;;;;4992219;28;57907;-61
2023/06/09 13:54:27;;;;;;;2.90;1.73;;;;;;;;;;4991361;28;58543;-62
2023/06/09 13:56:52;;;;;;;4.45;1.58;;;;;;;;;;4990173;28;59138;-57
2023/06/09 13:59:17;;;;;;;1.90;1.73;;;;;;;;;;4991147;28;58549;-62
2023/06/09 14:01:44;;;;;;;3.90;1.40;;;;;;;;;;4990673;28;58330;-62
2023/06/09 14:04:10;;;;;;;1.80;1.65;;;;;;;;;;4991598;28;58475;-62
2023/06/09 14:06:35;;;;;;;1.67;1.58;;;;;;;;;;4990478;28;57911;-62
2023/06/09 14:09:00;;;;;;;3.50;1.67;;;;;;;;;;4991759;28;58122;-61
2023/06/09 14:11:25;;;;;;;5.90;1.90;;;;;;;;;;4990861;28;58309;-62
2023/06/09 14:13:51;;;;;;;2.42;1.15;;;;;;;;;;4990525;28;58587;-62
2023/06/09 14:16:16;;;;;;;1.42;1.30;;;;;;;;;;4990054;28;58323;-61
2023/06/09 14:18:41;;;;;;;2.20;1.50;;;;;;;;;;4991236;28;58088;-62
2023/06/09 14:21:06;;;;;;;3.33;1.50;;;;;;;;;;4989595;28;58630;-61
2023/06/09 14:23:31;;;;;;;1.43;1.23;;;;;;;;;;4991599;28;58491;-62
2023/06/09 14:25:57;;;;;;;2.13;1.58;;;;;;;;;;4989481;28;58922;-61
2023/06/09 14:28:22;;;;;;;1.33;1.23;;;;;;;;;;4991219;28;58599;-62
2023/06/09 14:30:47;;;;;;;1.93;1.40;;;;;;;;;;4987886;28;59068;-58
2023/06/09 14:33:13;;;;;;;2.50;1.63;;;;;;;;;;4989609;28;59076;-62
2023/06/09 14:35:39;;;;;;;1.80;1.35;;;;;;;;;;4990590;28;58478;-61
2023/06/09 14:38:04;;;;;;;2.22;1.98;;;;;;;;;;4988434;28;58375;-61